Time;durP1;ratioP1;P1;durP2;ratioP2;P2;SDS_P1;SDS_P2;PMS_P1;PMS_P2;Temp;Humidity;BMP_temperature;BMP_pressure;BME280_temperature;BME280_humidity;BME280_pressure;Samples;Min_cycle;Max_cycle;Signal;HPM_P1;HPM_P2
2021/08/29 00:01:32;;;;;;;10.87;8.00;;;14.10;99.90;;;;;;5017233;28;20511;-67
2021/08/29 00:03:58;;;;;;;7.40;6.80;;;14.10;99.90;;;;;;5017300;28;20500;-67
2021/08/29 00:06:26;;;;;;;8.63;7.33;;;14.10;99.90;;;;;;5016675;28;20506;-66
2021/08/29 00:08:55;;;;;;;11.83;7.87;;;14.10;99.90;;;;;;5016870;28;20471;-66
2021/08/29 00:11:24;;;;;;;9.63;7.10;;;14.10;99.90;;;;;;5016996;28;20511;-66
2021/08/29 00:13:51;;;;;;;9.10;7.40;;;14.10;99.90;;;;;;5019162;28;20464;-66
2021/08/29 00:16:18;;;;;;;8.87;7.97;;;14.10;99.90;;;;;;5021055;28;20500;-66
2021/08/29 00:18:45;;;;;;;10.87;8.00;;;14.10;99.90;;;;;;5021369;28;20950;-66
2021/08/29 00:21:14;;;;;;;8.90;8.10;;;14.10;99.90;;;;;;5021422;28;20491;-66
2021/08/29 00:23:41;;;;;;;11.33;8.60;;;14.10;99.90;;;;;;5018090;28;20465;-66
2021/08/29 00:26:08;;;;;;;9.07;8.00;;;14.10;99.90;;;;;;5004602;28;20597;-66
2021/08/29 00:28:37;;;;;;;11.33;7.37;;;14.10;99.90;;;;;;5004791;28;20460;-66
2021/08/29 00:31:04;;;;;;;11.90;7.47;;;14.10;99.90;;;;;;5019992;28;20522;-66
2021/08/29 00:33:30;;;;;;;10.80;8.17;;;14.10;99.90;;;;;;5020951;28;20503;-66
2021/08/29 00:36:01;;;;;;;9.87;8.90;;;14.20;99.90;;;;;;5021330;28;20483;-66
2021/08/29 00:38:27;;;;;;;11.93;8.60;;;14.20;99.90;;;;;;5020379;28;20522;-66
2021/08/29 00:40:54;;;;;;;13.23;8.10;;;14.20;99.90;;;;;;5020857;28;20503;-66
2021/08/29 00:43:22;;;;;;;9.20;8.40;;;14.10;99.90;;;;;;5020942;28;20776;-65
2021/08/29 00:45:51;;;;;;;10.13;8.30;;;14.10;99.90;;;;;;5020970;28;20496;-65
2021/08/29 00:48:18;;;;;;;10.00;7.90;;;14.10;99.90;;;;;;5020271;28;20521;-65
2021/08/29 00:50:46;;;;;;;9.33;8.40;;;14.10;99.90;;;;;;5020459;28;20561;-65
2021/08/29 00:53:15;;;;;;;10.23;9.20;;;14.10;99.90;;;;;;5020813;28;20464;-65
2021/08/29 00:55:46;;;;;;;10.30;9.33;;;14.00;99.90;;;;;;5020781;28;20913;-65
2021/08/29 00:58:13;;;;;;;10.37;8.60;;;14.00;99.90;;;;;;5020162;28;20486;-65
2021/08/29 01:00:41;;;;;;;11.07;9.23;;;14.00;99.90;;;;;;5020573;28;20905;-65
2021/08/29 01:03:16;;;;;;;10.77;9.67;;;14.10;99.90;;;;;;5007269;28;21773;-65
2021/08/29 01:05:51;;;;;;;11.10;8.70;;;14.10;99.90;;;;;;5008889;28;20495;-65
2021/08/29 01:08:18;;;;;;;11.30;10.17;;;14.10;99.90;;;;;;5008910;28;20456;-65
2021/08/29 01:10:55;;;;;;;11.50;9.63;;;14.10;99.90;;;;;;4999373;28;20817;-65
2021/08/29 01:13:26;;;;;;;14.20;10.83;;;14.10;99.90;;;;;;5000290;28;20900;-65
2021/08/29 01:15:55;;;;;;;15.43;11.10;;;14.10;99.90;;;;;;5000394;28;20532;-65
2021/08/29 01:18:25;;;;;;;11.03;9.93;;;14.00;99.90;;;;;;4999894;28;20465;-65
2021/08/29 01:20:59;;;;;;;10.97;9.90;;;14.00;99.90;;;;;;5000269;28;20519;-65
2021/08/29 01:23:27;;;;;;;11.37;10.30;;;14.10;99.90;;;;;;5000468;28;20523;-65
2021/08/29 01:25:57;;;;;;;13.37;11.47;;;14.00;99.90;;;;;;5013573;28;20497;-65
2021/08/29 01:28:35;;;;;;;12.73;9.70;;;14.00;99.90;;;;;;5015792;28;20970;-65
2021/08/29 01:31:04;;;;;;;11.70;10.50;;;14.00;99.90;;;;;;5020024;28;20923;-65
2021/08/29 01:33:32;;;;;;;13.27;9.40;;;14.00;99.90;;;;;;5020316;28;20503;-65
2021/08/29 01:35:59;;;;;;;12.43;10.40;;;14.00;99.90;;;;;;5019864;28;20881;-65
2021/08/29 01:38:26;;;;;;;13.37;10.70;;;14.00;99.90;;;;;;5018700;28;20446;-65
2021/08/29 01:40:54;;;;;;;10.97;9.90;;;14.00;99.90;;;;;;5019922;28;20505;-65
2021/08/29 01:43:21;;;;;;;9.93;8.97;;;14.00;99.90;;;;;;5019301;28;20933;-65
2021/08/29 01:45:48;;;;;;;12.70;10.10;;;14.00;99.90;;;;;;5019694;28;20832;-65
2021/08/29 01:48:17;;;;;;;13.20;9.77;;;14.00;99.90;;;;;;5019277;28;20614;-65
2021/08/29 01:50:44;;;;;;;11.70;10.03;;;14.00;99.90;;;;;;5020098;28;20464;-65
2021/08/29 01:53:13;;;;;;;13.70;10.97;;;14.00;99.90;;;;;;5019723;28;20495;-65
2021/08/29 01:55:39;;;;;;;11.47;9.80;;;14.00;99.90;;;;;;5019965;28;20471;-66
2021/08/29 01:58:07;;;;;;;13.13;11.20;;;14.00;99.90;;;;;;5019776;28;20522;-66
2021/08/29 02:00:46;;;;;;;11.67;10.67;;;14.00;99.90;;;;;;5019204;28;20526;-66
2021/08/29 02:03:18;;;;;;;12.93;11.60;;;14.00;99.90;;;;;;5019479;28;20741;-66
2021/08/29 02:05:49;;;;;;;14.43;11.47;;;14.00;99.90;;;;;;5019578;28;20487;-66
2021/08/29 02:08:17;;;;;;;13.83;12.53;;;14.00;99.90;;;;;;5019256;28;20503;-66
2021/08/29 02:10:49;;;;;;;14.83;13.07;;;14.00;99.90;;;;;;5019466;28;20496;-66
2021/08/29 02:13:21;;;;;;;17.13;12.40;;;14.00;99.90;;;;;;5019222;28;20464;-66
2021/08/29 02:15:57;;;;;;;14.67;13.17;;;13.90;99.90;;;;;;5019687;28;20496;-66
2021/08/29 02:18:28;;;;;;;17.17;13.77;;;13.90;99.90;;;;;;5018841;28;20472;-66
2021/08/29 02:20:58;;;;;;;16.00;14.17;;;13.90;99.90;;;;;;5019437;28;20812;-66
2021/08/29 02:23:26;;;;;;;17.80;14.87;;;13.90;99.90;;;;;;5017547;28;20920;-66
2021/08/29 02:25:54;;;;;;;16.80;14.83;;;13.90;99.90;;;;;;5006498;28;20522;-67
2021/08/29 02:28:22;;;;;;;15.23;13.43;;;13.90;99.90;;;;;;5007458;28;20499;-67
2021/08/29 02:30:50;;;;;;;14.70;13.40;;;13.90;99.90;;;;;;5018927;28;20868;-67
2021/08/29 02:33:17;;;;;;;16.40;14.70;;;13.90;99.90;;;;;;5019052;28;20553;-67
2021/08/29 02:35:46;;;;;;;14.80;13.40;;;13.90;99.90;;;;;;5018999;28;20456;-67
2021/08/29 02:38:14;;;;;;;15.97;14.47;;;13.90;99.90;;;;;;5019158;28;20559;-67
2021/08/29 02:40:43;;;;;;;18.37;15.87;;;13.90;99.90;;;;;;5018442;28;20805;-67
2021/08/29 02:43:13;;;;;;;16.80;15.27;;;13.90;99.90;;;;;;5018857;28;20793;-67
2021/08/29 02:45:43;;;;;;;19.10;16.47;;;13.90;99.90;;;;;;5018620;28;20503;-67
2021/08/29 02:48:11;;;;;;;20.27;18.20;;;13.90;99.90;;;;;;5018640;28;20446;-67
2021/08/29 02:50:39;;;;;;;23.23;20.90;;;13.90;99.90;;;;;;5017991;28;20463;-67
2021/08/29 02:53:07;;;;;;;23.93;21.37;;;13.90;99.90;;;;;;5017368;28;20500;-67
2021/08/29 02:55:35;;;;;;;24.13;21.93;;;13.90;99.90;;;;;;5018481;28;20499;-67
2021/08/29 02:58:06;;;;;;;25.20;22.73;;;13.90;99.90;;;;;;5018500;28;20469;-67
2021/08/29 03:00:34;;;;;;;27.67;21.33;;;14.00;99.90;;;;;;5017769;28;20550;-67
2021/08/29 03:03:01;;;;;;;26.07;23.40;;;14.00;99.90;;;;;;5018456;28;20519;-66
2021/08/29 03:05:28;;;;;;;25.33;23.00;;;13.90;99.90;;;;;;5018250;28;20570;-66
2021/08/29 03:07:56;;;;;;;26.90;24.17;;;13.90;99.90;;;;;;5018181;28;20499;-66
2021/08/29 03:10:25;;;;;;;26.60;24.27;;;13.90;99.90;;;;;;5017805;28;20793;-66
2021/08/29 03:12:52;;;;;;;26.93;24.23;;;13.90;99.90;;;;;;5017929;28;20471;-67
2021/08/29 03:15:19;;;;;;;29.17;26.27;;;13.90;99.90;;;;;;5017635;28;20464;-67
2021/08/29 03:17:46;;;;;;;31.47;28.07;;;13.90;99.90;;;;;;5018395;28;20495;-67
2021/08/29 03:20:14;;;;;;;29.70;26.60;;;13.90;99.90;;;;;;5018305;28;20526;-67
2021/08/29 03:22:43;;;;;;;31.20;28.07;;;13.90;99.90;;;;;;5017939;28;20987;-67
2021/08/29 03:25:10;;;;;;;30.80;28.07;;;13.80;99.90;;;;;;5014209;28;20468;-67
2021/08/29 03:27:42;;;;;;;33.97;30.73;;;13.90;99.90;;;;;;5017439;28;20491;-67
2021/08/29 03:30:10;;;;;;;35.60;32.20;;;13.90;99.90;;;;;;5017830;28;20877;-67
2021/08/29 03:32:38;;;;;;;35.13;31.40;;;13.90;99.90;;;;;;5017808;28;20947;-67
2021/08/29 03:35:06;;;;;;;32.87;29.77;;;13.90;99.90;;;;;;5017882;28;20497;-67
2021/08/29 03:37:36;;;;;;;32.30;29.00;;;13.90;99.90;;;;;;5017251;28;20828;-67
2021/08/29 03:40:06;;;;;;;33.03;29.60;;;13.90;99.90;;;;;;5017410;28;20538;-67
2021/08/29 03:42:34;;;;;;;31.63;28.60;;;13.90;99.90;;;;;;5018078;28;20478;-67
2021/08/29 03:45:08;;;;;;;30.47;27.17;;;13.90;99.90;;;;;;5017372;28;20438;-67
2021/08/29 03:47:35;;;;;;;31.20;27.83;;;13.90;99.90;;;;;;5017529;28;20456;-67
2021/08/29 03:50:03;;;;;;;31.90;28.60;;;13.90;99.90;;;;;;5017643;28;20466;-67
2021/08/29 03:52:31;;;;;;;29.33;26.53;;;13.90;99.90;;;;;;5017513;28;20520;-67
2021/08/29 04:29:00;;;;;;;32.50;29.20;;;13.90;99.90;;;;;;5117838;23;20497;-67
2021/08/29 04:31:30;;;;;;;34.57;31.10;;;13.90;99.90;;;;;;4998014;28;20462;-67
2021/08/29 04:34:01;;;;;;;35.53;32.00;;;13.90;99.90;;;;;;4997904;28;20457;-67
2021/08/29 04:36:29;;;;;;;37.20;33.67;;;13.90;99.90;;;;;;4997228;28;20460;-67
2021/08/29 04:38:56;;;;;;;39.57;35.50;;;14.00;99.90;;;;;;4996951;28;20528;-67
2021/08/29 04:41:23;;;;;;;40.43;36.07;;;13.90;99.90;;;;;;4997637;28;20816;-67
2021/08/29 04:43:50;;;;;;;37.80;34.10;;;13.90;99.90;;;;;;4997750;28;20562;-67
2021/08/29 04:46:18;;;;;;;40.70;36.17;;;13.90;99.90;;;;;;4996945;28;20500;-67
2021/08/29 04:48:45;;;;;;;40.30;35.83;;;14.00;99.90;;;;;;4997572;28;20810;-67
2021/08/29 04:51:12;;;;;;;38.83;34.73;;;14.00;99.90;;;;;;4997398;28;20578;-67
2021/08/29 04:53:39;;;;;;;40.67;36.40;;;14.00;99.90;;;;;;4997748;28;20937;-67
2021/08/29 04:56:06;;;;;;;39.73;35.90;;;14.00;99.90;;;;;;4997902;28;20496;-67
2021/08/29 04:58:33;;;;;;;37.30;33.30;;;13.90;99.90;;;;;;4997347;28;20528;-67
2021/08/29 05:01:00;;;;;;;40.80;36.90;;;14.00;99.90;;;;;;5000757;28;20840;-67
2021/08/29 05:03:29;;;;;;;41.30;37.50;;;14.00;99.90;;;;;;5001215;28;20558;-67
2021/08/29 05:05:57;;;;;;;38.63;34.63;;;14.00;99.90;;;;;;5001215;28;20488;-67
2021/08/29 05:08:24;;;;;;;36.60;32.50;;;14.00;99.90;;;;;;5000761;28;20464;-67
2021/08/29 05:10:51;;;;;;;41.00;34.43;;;13.90;99.90;;;;;;5000667;28;20467;-67
2021/08/29 05:13:18;;;;;;;34.03;30.20;;;14.00;99.90;;;;;;5000833;28;20499;-67
2021/08/29 05:15:45;;;;;;;37.10;33.60;;;14.00;99.90;;;;;;5000973;28;20436;-67
2021/08/29 05:18:12;;;;;;;36.00;32.60;;;14.00;99.90;;;;;;5000853;28;20461;-67
2021/08/29 05:20:41;;;;;;;36.40;32.63;;;14.00;99.90;;;;;;5000920;28;20960;-67
2021/08/29 05:23:07;;;;;;;35.23;31.53;;;14.10;99.90;;;;;;5000476;28;20526;-67
2021/08/29 05:25:34;;;;;;;35.57;31.77;;;14.00;99.90;;;;;;5000296;28;20763;-67
2021/08/29 05:28:01;;;;;;;33.37;30.13;;;14.10;99.90;;;;;;4984891;28;20583;-67
2021/08/29 05:30:28;;;;;;;35.47;31.50;;;14.10;99.90;;;;;;4980875;28;20469;-67
2021/08/29 05:32:55;;;;;;;37.07;33.50;;;14.10;99.90;;;;;;4980894;28;20556;-67
2021/08/29 05:35:24;;;;;;;35.97;32.67;;;14.00;99.90;;;;;;4981160;28;20505;-67
2021/08/29 05:37:53;;;;;;;35.37;32.07;;;14.10;99.90;;;;;;4981087;28;20511;-67
2021/08/29 05:40:20;;;;;;;36.63;32.97;;;14.10;99.90;;;;;;4980852;28;20489;-67
2021/08/29 05:42:47;;;;;;;35.07;31.53;;;14.10;99.90;;;;;;4980806;28;20910;-67
2021/08/29 05:45:13;;;;;;;34.83;31.23;;;14.10;99.90;;;;;;4981041;28;20838;-67
2021/08/29 05:47:40;;;;;;;31.63;28.10;;;14.10;99.90;;;;;;4981168;28;20497;-67
2021/08/29 05:50:08;;;;;;;30.37;27.10;;;14.00;99.90;;;;;;4980646;28;20502;-67
2021/08/29 05:52:35;;;;;;;29.00;26.20;;;14.10;99.90;;;;;;4980275;28;20559;-67
2021/08/29 05:55:04;;;;;;;30.73;25.77;;;14.10;99.90;;;;;;4980800;28;20464;-67
2021/08/29 05:57:31;;;;;;;28.43;24.73;;;14.10;99.90;;;;;;4980819;28;20462;-67
2021/08/29 05:59:58;;;;;;;31.23;26.30;;;14.10;99.90;;;;;;4980861;28;20466;-67
2021/08/29 06:02:25;;;;;;;28.33;25.40;;;14.10;99.90;;;;;;4980435;28;20465;-67
2021/08/29 06:04:52;;;;;;;27.77;25.03;;;14.10;99.90;;;;;;4980588;28;20524;-67
2021/08/29 06:07:19;;;;;;;29.63;27.00;;;14.10;99.90;;;;;;4980569;28;20951;-67
2021/08/29 06:09:46;;;;;;;28.60;25.90;;;14.20;99.90;;;;;;4980646;28;20466;-67
2021/08/29 06:12:14;;;;;;;29.03;26.43;;;14.20;99.90;;;;;;4980438;28;20894;-67
2021/08/29 06:14:41;;;;;;;29.27;26.00;;;14.20;99.90;;;;;;4980274;28;20473;-67
2021/08/29 06:17:08;;;;;;;27.97;25.17;;;14.20;99.90;;;;;;4980429;28;20489;-67
2021/08/29 06:19:35;;;;;;;28.67;25.80;;;14.20;99.90;;;;;;4980437;28;20480;-67
2021/08/29 06:22:02;;;;;;;27.47;24.53;;;14.20;99.90;;;;;;4980769;28;20493;-68
2021/08/29 06:24:29;;;;;;;26.20;23.63;;;14.20;99.90;;;;;;4990103;28;20485;-68
2021/08/29 06:26:56;;;;;;;27.47;24.60;;;14.30;99.90;;;;;;4992903;28;20786;-68
2021/08/29 06:29:24;;;;;;;30.30;23.10;;;14.20;99.90;;;;;;4980254;28;20501;-68
2021/08/29 06:31:51;;;;;;;23.43;21.33;;;14.20;99.90;;;;;;4980176;28;20524;-67
2021/08/29 06:34:18;;;;;;;21.33;19.13;;;14.20;99.90;;;;;;4979961;28;20524;-67
2021/08/29 06:36:48;;;;;;;20.10;17.97;;;14.20;99.90;;;;;;4980109;28;20501;-67
2021/08/29 06:39:15;;;;;;;21.77;19.57;;;14.30;99.90;;;;;;4979768;28;20513;-68
2021/08/29 06:41:42;;;;;;;19.23;17.23;;;14.30;99.90;;;;;;4979917;28;20508;-68
2021/08/29 06:44:09;;;;;;;23.73;18.97;;;14.40;99.90;;;;;;4979513;28;20512;-68
2021/08/29 06:46:38;;;;;;;19.60;17.80;;;14.40;99.90;;;;;;4979166;28;20504;-68
2021/08/29 06:49:04;;;;;;;21.67;18.70;;;14.40;99.90;;;;;;4979941;28;20469;-68
2021/08/29 06:51:31;;;;;;;19.73;17.13;;;14.50;99.90;;;;;;4979521;28;20444;-68
2021/08/29 06:53:58;;;;;;;18.73;15.10;;;14.50;99.90;;;;;;4979472;28;20505;-68
2021/08/29 06:56:25;;;;;;;17.57;15.97;;;14.40;99.90;;;;;;4979841;28;20798;-67
2021/08/29 06:58:52;;;;;;;16.90;15.10;;;14.50;99.90;;;;;;4979692;28;20493;-67
2021/08/29 07:01:19;;;;;;;15.97;14.47;;;14.40;99.90;;;;;;4986540;28;20767;-67
2021/08/29 07:03:48;;;;;;;13.50;12.20;;;14.40;99.90;;;;;;4998400;28;20468;-67
2021/08/29 07:06:15;;;;;;;14.30;13.10;;;14.40;99.90;;;;;;4997934;28;20472;-67
2021/08/29 07:08:42;;;;;;;15.37;13.97;;;14.40;99.90;;;;;;4996510;28;20478;-67
2021/08/29 07:11:08;;;;;;;15.27;13.33;;;14.50;99.90;;;;;;4996470;28;20508;-67
2021/08/29 07:13:38;;;;;;;14.90;13.27;;;14.40;99.90;;;;;;4979537;28;20508;-67
2021/08/29 07:16:07;;;;;;;15.87;13.27;;;14.40;99.90;;;;;;4996618;28;20465;-67
2021/08/29 07:18:34;;;;;;;14.03;12.63;;;14.40;99.90;;;;;;4998507;28;20556;-67
2021/08/29 07:21:03;;;;;;;15.20;13.47;;;14.40;99.90;;;;;;4998395;28;20933;-67
2021/08/29 07:23:30;;;;;;;15.87;14.40;;;14.40;99.90;;;;;;4995816;28;20933;-67
2021/08/29 07:25:57;;;;;;;17.37;15.27;;;14.40;99.90;;;;;;4982205;28;20547;-67
2021/08/29 09:44:32;;;;;;;5.67;5.27;;;15.00;99.90;;;;;;5418623;23;20523;-68
2021/08/29 09:47:03;;;;;;;5.60;5.20;;;15.10;99.90;;;;;;4999073;28;20517;-67
2021/08/29 09:49:34;;;;;;;4.67;4.37;;;14.90;99.90;;;;;;5000418;28;20868;-67
2021/08/29 10:27:59;;;;;;;2.37;2.17;;;15.20;99.90;;;;;;5108998;23;20792;-69
2021/08/29 10:30:28;;;;;;;2.83;2.63;;;15.10;99.90;;;;;;4999426;28;20499;-68
2021/08/29 10:32:58;;;;;;;3.50;3.20;;;15.00;99.90;;;;;;4999681;28;20500;-68
2021/08/29 10:35:25;;;;;;;3.43;3.13;;;15.00;99.90;;;;;;4988305;28;20557;-69
2021/08/29 10:37:53;;;;;;;4.00;3.70;;;14.90;99.90;;;;;;4980173;28;20886;-68
2021/08/29 10:40:20;;;;;;;3.53;3.27;;;15.00;99.90;;;;;;4979785;28;20829;-67
2021/08/29 10:42:50;;;;;;;4.27;3.97;;;14.90;99.90;;;;;;4979485;28;20469;-68
2021/08/29 10:45:17;;;;;;;4.30;4.00;;;14.90;99.90;;;;;;4979901;28;20488;-68
2021/08/29 10:47:48;;;;;;;5.03;4.63;;;15.00;99.90;;;;;;4979830;28;20529;-69
2021/08/29 10:50:18;;;;;;;4.23;3.83;;;14.90;99.90;;;;;;4979275;28;20529;-68
2021/08/29 10:52:48;;;;;;;4.43;4.13;;;15.00;99.90;;;;;;4979944;28;20466;-67
2021/08/29 10:55:18;;;;;;;4.83;4.33;;;15.00;99.90;;;;;;4979043;28;20567;-68
2021/08/29 10:57:46;;;;;;;4.77;4.40;;;14.90;99.90;;;;;;4979754;28;20469;-69
2021/08/29 11:00:22;;;;;;;4.87;4.50;;;15.00;99.90;;;;;;4979655;28;20470;-69
2021/08/29 11:02:51;;;;;;;4.60;4.30;;;15.00;99.90;;;;;;4979767;28;20473;-67
2021/08/29 11:05:44;;;;;;;4.03;3.73;;;15.00;99.90;;;;;;4979306;28;20503;-67
2021/08/29 11:08:26;;;;;;;4.43;4.13;;;14.90;99.90;;;;;;4979547;28;20588;-67
2021/08/29 11:10:54;;;;;;;4.90;4.50;;;14.90;99.90;;;;;;4979260;28;20925;-67
2021/08/29 11:13:42;;;;;;;4.47;4.17;;;15.00;99.90;;;;;;4978873;28;20465;-66
2021/08/29 11:16:19;;;;;;;4.03;3.73;;;15.20;99.90;;;;;;4979599;28;20462;-66
2021/08/29 11:19:14;;;;;;;4.50;4.20;;;15.10;99.90;;;;;;4979140;28;20508;-66
2021/08/29 11:22:12;;;;;;;4.67;4.37;;;15.10;99.90;;;;;;4979411;28;20454;-66
2021/08/29 11:24:57;;;;;;;4.33;4.03;;;15.20;99.90;;;;;;4989792;28;20432;-66
2021/08/29 11:27:50;;;;;;;4.70;4.40;;;15.20;99.90;;;;;;4998615;28;20560;-67
2021/08/29 11:30:19;;;;;;;5.10;4.70;;;15.40;99.90;;;;;;4998272;28;20936;-66
2021/08/29 11:32:53;;;;;;;4.37;4.07;;;15.30;99.90;;;;;;4998587;28;20527;-67
2021/08/29 11:35:26;;;;;;;6.37;5.87;;;15.30;99.90;;;;;;4987981;28;20477;-66
2021/08/29 11:38:19;;;;;;;10.57;9.67;;;15.50;99.90;;;;;;4979259;28;20569;-66
2021/08/29 11:40:51;;;;;;;9.33;8.63;;;15.50;99.90;;;;;;4964902;28;20528;-67
2021/08/29 11:43:20;;;;;;;32.87;27.40;;;15.40;99.90;;;;;;4979218;28;21159;-67
2021/08/29 11:46:08;;;;;;;22.20;20.10;;;15.40;99.90;;;;;;4979019;28;20472;-69
2021/08/29 11:48:38;;;;;;;14.20;13.00;;;15.70;99.90;;;;;;4978862;28;20498;-69
2021/08/29 11:51:10;;;;;;;8.13;7.53;;;16.10;99.90;;;;;;4978520;28;20524;-69
2021/08/29 11:53:46;;;;;;;8.73;7.93;;;16.10;99.90;;;;;;4978666;28;20468;-68
2021/08/29 11:56:17;;;;;;;5.63;5.23;;;16.00;99.90;;;;;;4978266;28;20457;-69
2021/08/29 11:58:45;;;;;;;3.30;3.10;;;16.00;99.90;;;;;;4979746;28;20454;-69
2021/08/29 12:01:15;;;;;;;3.37;3.17;;;15.90;99.90;;;;;;4982929;28;20758;-69
2021/08/29 12:36:15;;;;;;;7.13;5.20;;;16.10;99.90;;;;;;5373673;23;20448;-64
2021/08/29 12:38:42;;;;;;;4.80;4.40;;;16.10;99.90;;;;;;5016094;28;20470;-65
2021/08/29 12:41:09;;;;;;;10.60;9.73;;;16.20;99.90;;;;;;5015795;28;20468;-65
2021/08/29 12:43:36;;;;;;;4.10;3.70;;;16.30;99.90;;;;;;5016894;28;20832;-65
2021/08/29 12:46:06;;;;;;;28.60;25.97;;;16.60;99.90;;;;;;5017148;28;20815;-65
2021/08/29 12:48:33;;;;;;;6.70;6.20;;;16.80;99.90;;;;;;5017062;28;20491;-64
2021/08/29 12:51:07;;;;;;;3.83;3.53;;;16.70;99.90;;;;;;5016690;28;20503;-65
2021/08/29 12:53:38;;;;;;;4.10;3.70;;;16.60;99.90;;;;;;5016800;28;20975;-66
2021/08/29 12:56:20;;;;;;;9.63;8.73;;;16.40;99.90;;;;;;5017360;28;20550;-65
2021/08/29 12:58:50;;;;;;;6.77;6.20;;;16.40;99.90;;;;;;5017087;28;20959;-64
2021/08/29 13:01:19;;;;;;;8.17;7.47;;;16.40;99.90;;;;;;5015987;28;20495;-65
2021/08/29 13:03:55;;;;;;;3.47;3.20;;;16.30;99.90;;;;;;5016833;28;20497;-65
2021/08/29 13:06:25;;;;;;;23.93;21.50;;;16.60;99.90;;;;;;5013168;28;20508;-65
2021/08/29 13:08:53;;;;;;;4.23;3.83;;;16.50;99.90;;;;;;5016754;28;20561;-65
2021/08/29 13:11:22;;;;;;;8.23;7.50;;;16.40;99.90;;;;;;5014984;28;20762;-64
2021/08/29 13:49:37;;;;;;;5.33;4.93;;;15.90;99.90;;;;;;5017006;28;20496;-66
2021/08/29 13:52:04;;;;;;;5.97;5.53;;;15.80;99.90;;;;;;5019936;28;20892;-66
2021/08/29 13:54:34;;;;;;;5.37;4.87;;;15.90;99.90;;;;;;5018381;28;20524;-67
2021/08/29 13:57:01;;;;;;;5.60;5.10;;;16.20;99.90;;;;;;5019893;28;20528;-67
2021/08/29 13:59:34;;;;;;;5.70;5.20;;;16.40;99.90;;;;;;5018960;28;20892;-68
2021/08/29 14:02:01;;;;;;;5.30;4.90;;;16.50;99.90;;;;;;5019223;28;20468;-68
2021/08/29 14:04:28;;;;;;;5.57;5.17;;;16.70;99.90;;;;;;5018720;28;20464;-69
2021/08/29 14:06:56;;;;;;;5.67;5.13;;;16.70;99.90;;;;;;5018899;28;20526;-69
2021/08/29 14:09:24;;;;;;;5.90;5.40;;;16.70;99.90;;;;;;5018918;28;20499;-69
2021/08/29 14:11:53;;;;;;;7.00;6.30;;;16.60;99.90;;;;;;5018992;28;20525;-69
2021/08/29 14:14:22;;;;;;;6.00;5.57;;;16.40;99.90;;;;;;5018111;28;20509;-69
2021/08/29 14:16:49;;;;;;;6.50;6.00;;;16.40;99.90;;;;;;5018876;28;20466;-69
2021/08/29 14:19:18;;;;;;;7.47;6.77;;;16.20;99.90;;;;;;5019201;28;20967;-69
2021/08/29 14:21:45;;;;;;;6.00;5.50;;;16.20;99.90;;;;;;5019172;28;20539;-69
2021/08/29 14:24:13;;;;;;;12.50;6.83;;;16.00;99.90;;;;;;5011230;28;20458;-69
2021/08/29 14:26:41;;;;;;;7.10;6.40;;;16.00;99.90;;;;;;5003666;28;20475;-69
2021/08/29 14:29:08;;;;;;;8.03;5.90;;;16.10;99.90;;;;;;5018615;28;20492;-69
2021/08/29 14:31:35;;;;;;;6.50;6.00;;;16.10;99.90;;;;;;5019066;28;20971;-69
2021/08/29 14:34:02;;;;;;;8.67;7.87;;;16.00;99.90;;;;;;5018808;28;20575;-69
2021/08/29 14:36:29;;;;;;;7.23;6.67;;;16.00;99.90;;;;;;5018873;28;20538;-69
2021/08/29 14:38:58;;;;;;;7.70;7.00;;;16.10;99.90;;;;;;5018583;28;20899;-69
2021/08/29 14:41:26;;;;;;;8.27;7.57;;;16.10;99.90;;;;;;5018908;28;20464;-67
2021/08/29 14:43:53;;;;;;;7.00;6.40;;;16.10;99.90;;;;;;5018933;28;20487;-66
2021/08/29 14:46:20;;;;;;;7.70;7.00;;;16.10;99.90;;;;;;5018646;28;20562;-66
2021/08/29 14:48:47;;;;;;;6.17;5.67;;;16.10;99.90;;;;;;5017586;28;20499;-66
2021/08/29 14:51:15;;;;;;;7.83;7.07;;;16.10;99.90;;;;;;5018513;28;20464;-66
2021/08/29 14:53:45;;;;;;;6.50;5.90;;;16.40;99.90;;;;;;5017697;28;20468;-66
2021/08/29 14:56:14;;;;;;;9.90;8.73;;;16.40;99.90;;;;;;5017957;28;20813;-66
2021/08/29 14:58:42;;;;;;;12.77;11.20;;;16.40;99.90;;;;;;5016703;28;20876;-67
2021/08/29 15:01:10;;;;;;;6.53;6.03;;;16.50;99.90;;;;;;5017730;28;20526;-67
2021/08/29 15:03:38;;;;;;;6.10;5.33;;;16.60;99.90;;;;;;5018254;28;20471;-67
2021/08/29 15:06:05;;;;;;;6.47;5.97;;;16.50;99.90;;;;;;5018625;28;20500;-68
2021/08/29 15:08:32;;;;;;;6.67;6.17;;;16.50;99.90;;;;;;5018639;28;20506;-68
2021/08/29 15:10:59;;;;;;;5.63;5.20;;;16.50;99.90;;;;;;5017885;28;20908;-68
2021/08/29 15:13:26;;;;;;;5.60;5.20;;;16.50;99.90;;;;;;5017754;28;20491;-68
2021/08/29 15:15:56;;;;;;;6.60;6.10;;;16.40;99.90;;;;;;5017920;28;20459;-69
2021/08/29 15:18:23;;;;;;;5.13;4.73;;;16.60;99.90;;;;;;5011166;28;20473;-68
2021/08/29 15:20:51;;;;;;;5.60;5.10;;;16.60;99.90;;;;;;5012168;28;20471;-68
2021/08/29 15:23:18;;;;;;;4.83;4.43;;;16.70;99.90;;;;;;5010602;28;20469;-67
2021/08/29 15:25:45;;;;;;;5.50;5.10;;;16.80;99.90;;;;;;5013239;28;20468;-68
2021/08/29 15:28:15;;;;;;;6.67;5.40;;;16.80;99.90;;;;;;5013757;28;20488;-66
2021/08/29 15:30:45;;;;;;;6.27;5.77;;;16.70;99.90;;;;;;5003983;28;20491;-65
2021/08/29 15:33:14;;;;;;;6.30;5.70;;;16.70;99.90;;;;;;5007856;28;20464;-65
2021/08/29 15:35:46;;;;;;;7.00;6.50;;;16.80;99.90;;;;;;5008969;28;20456;-65
2021/08/29 15:38:14;;;;;;;8.77;8.03;;;16.80;99.90;;;;;;5005385;28;20469;-65
2021/08/29 15:40:44;;;;;;;8.13;6.90;;;16.70;99.90;;;;;;5003253;28;20465;-66
2021/08/29 15:43:11;;;;;;;7.47;6.87;;;16.60;99.90;;;;;;5005818;28;20461;-65
2021/08/29 15:45:40;;;;;;;6.40;5.90;;;16.60;99.90;;;;;;5010516;28;20846;-64
2021/08/29 15:48:10;;;;;;;6.30;5.80;;;16.60;99.90;;;;;;5015792;28;20595;-64
2021/08/29 15:50:39;;;;;;;6.13;5.63;;;16.80;99.90;;;;;;5013350;28;20476;-65
2021/08/29 15:53:07;;;;;;;5.40;5.00;;;16.90;99.90;;;;;;5014571;28;20468;-66
2021/08/29 15:55:34;;;;;;;5.50;5.10;;;16.80;99.90;;;;;;5004777;28;20535;-66
2021/08/29 15:58:01;;;;;;;7.80;7.10;;;16.70;99.90;;;;;;4998164;28;20507;-65
2021/08/29 16:00:32;;;;;;;8.57;7.63;;;16.80;99.90;;;;;;4997603;28;20527;-65
2021/08/29 16:02:59;;;;;;;11.80;10.70;;;16.60;99.90;;;;;;4997941;28;20446;-66
2021/08/29 16:05:31;;;;;;;11.90;10.83;;;16.40;99.90;;;;;;4997762;28;20469;-66
2021/08/29 16:08:01;;;;;;;8.43;7.60;;;16.50;99.90;;;;;;4997836;28;20567;-65
2021/08/29 16:10:35;;;;;;;7.70;7.10;;;16.60;99.90;;;;;;4997329;28;20940;-65
2021/08/29 16:13:04;;;;;;;6.13;5.63;;;16.60;99.90;;;;;;5014377;28;20468;-65
2021/08/29 16:15:34;;;;;;;9.27;8.57;;;16.30;99.90;;;;;;5017223;28;20467;-66
2021/08/29 16:18:12;;;;;;;6.67;6.17;;;16.30;99.90;;;;;;5017490;28;20522;-66
2021/08/29 16:20:41;;;;;;;6.60;6.00;;;16.30;99.90;;;;;;5017922;28;20460;-66
2021/08/29 16:23:13;;;;;;;6.63;6.13;;;16.50;99.90;;;;;;5017776;28;20754;-67
2021/08/29 16:25:41;;;;;;;7.00;6.40;;;16.50;99.90;;;;;;4997781;28;20821;-67
2021/08/29 16:28:08;;;;;;;5.23;4.83;;;16.70;99.90;;;;;;5013957;28;20800;-67
2021/08/29 16:30:38;;;;;;;6.43;5.83;;;16.60;99.90;;;;;;5016811;28;20464;-67
2021/08/29 16:33:05;;;;;;;5.67;5.17;;;16.50;99.90;;;;;;5017446;28;20797;-68
2021/08/29 16:35:34;;;;;;;6.37;5.83;;;16.60;99.90;;;;;;5017233;28;20946;-68
2021/08/29 16:38:07;;;;;;;6.13;5.60;;;16.40;99.90;;;;;;5017275;28;20471;-69
2021/08/29 16:40:38;;;;;;;6.70;6.20;;;16.30;99.90;;;;;;5017789;28;20460;-69
2021/08/29 16:43:05;;;;;;;6.73;6.23;;;16.30;99.90;;;;;;5017437;28;20460;-69
2021/08/29 16:45:34;;;;;;;6.40;5.80;;;16.30;99.90;;;;;;5016909;28;20522;-70
2021/08/29 16:48:01;;;;;;;5.73;5.33;;;16.30;99.90;;;;;;5016972;28;20495;-70
2021/08/29 16:50:28;;;;;;;6.83;6.13;;;16.30;99.90;;;;;;5010951;28;20846;-68
2021/08/29 16:52:55;;;;;;;6.53;6.00;;;16.20;99.90;;;;;;4999857;28;20524;-68
2021/08/29 16:55:27;;;;;;;5.30;4.80;;;16.10;99.90;;;;;;4997139;28;20824;-68
2021/08/29 16:57:58;;;;;;;6.70;5.67;;;16.20;99.90;;;;;;5016428;28;20472;-68
2021/08/29 17:00:25;;;;;;;6.83;6.30;;;16.20;99.90;;;;;;5018008;28;20494;-68
2021/08/29 17:02:53;;;;;;;6.33;5.73;;;16.20;99.90;;;;;;5023125;28;20471;-68
2021/08/29 17:05:23;;;;;;;5.93;5.30;;;16.20;99.90;;;;;;5000432;28;20495;-68
2021/08/29 17:08:04;;;;;;;7.30;6.60;;;16.30;99.90;;;;;;4999443;28;20496;-68
2021/08/29 17:10:32;;;;;;;6.67;6.17;;;16.30;99.90;;;;;;5005783;28;20465;-68
2021/08/29 17:13:00;;;;;;;6.27;5.77;;;16.30;99.90;;;;;;5005903;28;20463;-69
2021/08/29 17:15:30;;;;;;;6.77;6.27;;;16.30;99.90;;;;;;5004151;28;20480;-69
2021/08/29 17:17:57;;;;;;;7.57;6.87;;;16.40;99.90;;;;;;4999962;28;20508;-69
2021/08/29 17:20:24;;;;;;;7.97;7.27;;;16.40;99.90;;;;;;5000678;28;20467;-69
2021/08/29 17:22:51;;;;;;;7.40;6.90;;;16.30;99.90;;;;;;4999883;28;20539;-69